Date,TemperatureHighF,TemperatureAvgF,TemperatureLowF,DewpointHighF,DewpointAvgF,DewpointLowF,HumidityHigh,HumidityAvg,HumidityLow,PressureMaxIn,PressureMinIn,WindSpeedMaxMPH,WindSpeedAvgMPH,GustSpeedMaxMPH,PrecipitationSumIn
2013-9-1,88,75,66,74,68,61,100,80,54,29.81,29.67,10,2,17,0.00
2013-9-2,76,67,60,64,59,55,95,76,50,29.96,29.80,5,2,13,0.00
2013-9-3,77,65,54,60,56,52,95,76,53,30.05,29.95,5,1,8,0.00
2013-9-4,85,70,55,67,60,53,95,73,48,30.09,29.99,5,0,10,0.00
2013-9-5,88,75,64,72,64,59,85,71,52,30.12,30.05,9,1,15,0.00
2013-9-6,87,73,60,68,62,53,85,68,46,30.12,29.93,6,1,11,0.00
2013-9-7,91,77,66,73,68,62,89,73,53,29.94,29.78,5,1,9,0.00
2013-9-8,84,78,71,73,71,68,92,80,66,29.91,29.79,11,4,16,0.00
2013-9-9,97,82,70,74,71,66,99,72,44,29.82,29.73,4,1,15,0.00
2013-9-10,95,83,70,70,66,64,80,59,38,29.94,29.82,9,1,17,0.00
2013-9-11,85,77,71,71,69,66,93,75,61,29.98,29.92,5,1,17,0.00
2013-9-12,78,70,60,69,57,48,94,67,37,30.05,29.95,11,3,18,0.00
2013-9-13,68,58,52,51,46,36,87,66,30,30.15,30.04,9,1,14,0.00
2013-9-14,73,60,45,50,46,41,94,64,39,30.14,29.95,5,1,9,0.00
2013-9-15,65,59,55,61,54,46,94,84,61,30.14,29.90,7,2,11,0.13
2013-9-16,68,58,53,54,52,48,96,80,52,30.31,30.14,11,5,16,0.00
2013-9-17,69,60,48,61,54,46,94,82,68,30.26,30.01,10,4,18,0.00
2013-9-18,86,73,61,72,66,57,89,79,63,30.02,29.79,7,2,15,0.00
2013-9-19,92,78,67,73,69,65,97,77,47,29.83,29.66,20,1,25,0.40
2013-9-20,68,64,56,66,58,51,99,83,57,29.85,29.74,13,4,22,0.03
2013-9-21,68,58,49,52,50,47,95,75,53,29.92,29.83,9,1,15,0.00
2013-9-22,72,59,47,52,49,45,95,72,44,30.00,29.90,2,0,9,0.00
2013-9-23,73,60,47,55,50,44,91,72,48,30.02,29.90,11,3,15,0.00
2013-9-24,75,62,50,58,52,47,90,71,49,29.93,29.82,9,4,15,0.00
2013-9-25,77,64,52,58,54,50,94,71,47,29.90,29.81,8,4,11,0.00
2013-9-26,83,67,53,64,57,51,94,73,51,29.97,29.88,9,3,16,0.00
2013-9-27,82,68,56,64,55,50,83,65,42,30.04,29.93,11,3,19,0.00
2013-9-28,80,66,54,68,60,53,96,82,60,29.96,29.82,10,3,23,0.12
2013-9-29,72,59,47,57,48,43,100,73,36,30.04,29.93,3,0,6,0.02
2013-9-30,77,62,47,58,51,45,93,69,40,29.95,29.78,7,1,13,0.00